AirNav   Advertisement
 
 865 users online  

KACZ Henderson Field Airport
Wallace, North Carolina, USA

GOING TO WALLACE?


FAA INFORMATION EFFECTIVE 20 JULY 2017

Location

FAA Identifier: ACZ
Lat/Long: 34-43-04.3000N / 078-00-14.0000W
34-43.071667N / 078-00.233333W
34.7178611 / -78.0038889
(estimated)
Elevation: 38.1 ft. / 11.6 m (surveyed)
Variation: 09W (2000)
From city: 1 mile SW of WALLACE, NC
Time zone: UTC -4 (UTC -5 during Standard Time)
Zip code: 28466

Airport Operations

Airport use: Open to the public
Activation date: 06/1954
Control tower: no
ARTCC: WASHINGTON CENTER
FSS: RALEIGH FLIGHT SERVICE STATION
NOTAMs facility: RDU (NOTAM-D service available)
Attendance: MON-FRI 0830-1700, ALL SAT 0830-1800, ALL SUN 1300-1800
24 HR ACCESS TO PILOTS' LOUNGE - DOOR CODE ON FUEL RECEIPT.
Wind indicator: lighted
Segmented circle: yes
Lights: SS-SR
Beacon: white-green (lighted land airport)
Operates sunset to sunrise.

Airport Communications

CTAF/UNICOM: 122.8
WILMINGTON APPROACH: 135.75
WILMINGTON DEPARTURE: 135.75
WX AWOS-3 at DPL (17 nm N): 120.675 (910-296-9688)
  • APCH/DEP SVC PRVDD BY WASHINGTON ARTCC ON FREQS 124.025/269.15 (WILMINGTON RCAG) WHEN WILMINGTON APCH CTL CLSD.

Nearby radio navigation aids

VOR radial/distance  VOR name  Freq  Var
ILMr351/22.9WILMINGTON VORTAC117.0007W

 
NDB name  Hdg/Dist  Freq  Var  ID
ELLAS270/14.926108WOA --- .-
KENAN200/21.733209WDKA -.. -.- .-
CLINTON140/23.441209WCTZ -.-. - --..
ELIZABETHTOWN074/27.739808WTGQ - --. --.-
DIXON296/28.619808WDIW -.. .. .--
CAROLINA BEACH006/36.821609WCLB -.-. .-.. -...

Airport Services

Fuel available: 100LL JET-A1+
24 HR SELF SERVICE FUEL WITH CREDIT CARD.
Parking: tiedowns
Airframe service: MAJOR
Powerplant service: MAJOR
Bottled oxygen: NONE
Bulk oxygen: NONE

Runway Information

Runway 9/27

Dimensions: 4153 x 75 ft. / 1266 x 23 m
Surface: asphalt, in excellent condition
Weight bearing capacity: 
Single wheel: 12.5
Runway edge lights: medium intensity
RUNWAY 9  RUNWAY 27
Latitude: 34-43.042453N34-43.101515N
Longitude: 078-00.645852W077-59.819745W
Elevation: 37.9 ft.29.2 ft.
Gradient: 0.3%0.3%
Traffic pattern: leftleft
Runway heading: 094 magnetic, 085 true274 magnetic, 265 true
Displaced threshold: 149 ft.151 ft.
Markings: nonprecision, in good conditionnonprecision, in good condition
Visual slope indicator: 2-light PAPI on left (3.13 degrees glide path)2-light PAPI on left (3.53 degrees glide path)
Touchdown point: yes, no lightsyes, no lights
Obstructions: 33 ft. pole, 784 ft. from runway, 36 ft. left of centerline, 17:1 slope to clear
APCH SLOPE 20:1 TO DSPLCD THLD.
112 ft. trees, 2178 ft. from runway, 291 ft. right of centerline, 17:1 slope to clear
RY 27 HAS 7 FT BRUSH 162 FT FM THLD 156 FT RIGHT OF CNTRLN.

Airport Ownership and Management from official FAA records

Ownership: Publicly-owned
Owner: TOWN OF WALLACE
316 E. MURRAY STREET, PO BOX 849
WALLACE, NC 28466
Phone 910-285-4136
Manager: BILL COOK
250 HENDERSON FIELD ROAD
WALLACE, NC 28466
Phone 910-285-6642
NIGHT PHONE 910-285-2126 (POLICE DEPT). ALTERNATE: 910-284-1186.

Airport Operational Statistics

Aircraft based on the field: 19
Single engine airplanes: 18
Helicopters: 1
    
Aircraft operations: avg 44/day *
63% transient general aviation
28% local general aviation
8% military
1% air taxi
* for 12-month period ending 03 July 2015

Additional Remarks

5' DITCH 135' RIGHT OF CNTRLN RWY 09.
7' DITCH 140' LEFT OF CNTRLN RWY 27.
RWY 27 SAFETY AREA HAS 20' DEPRESSIONS/CREEK 160'FR THR BOTH SIDES C/L.

Instrument Procedures

NOTE: All procedures below are presented as PDF files. If you need a reader for these files, you should download the free Adobe Reader.

NOT FOR NAVIGATION. Please procure official charts for flight.
FAA instrument procedures published for use between 20 July 2017 at 0901Z and 17 August 2017 at 0900Z.

 
IAPs - Instrument Approach Procedures
RNAV (GPS) RWY 09   download (205KB)
RNAV (GPS) RWY 27   download (179KB)
NOTE: Special Take-Off Minimums/Departure Procedures apply   download (141KB)

Other nearby airports with instrument procedures:

KDPL - Duplin County Airport (17 nm N)
KOAJ - Albert J Ellis Airport (20 nm E)
KCTZ - Clinton-Sampson County Airport (24 nm NW)
KILM - Wilmington International Airport (27 nm S)
KNCA - New River Marine Corps Air Station (H) (McCutcheon Field) (28 nm E)
 
Loc | Ops | Rwys | IFR | FBO | Links
Com | Nav | Svcs | Stats | Notes


 
Area around KACZ (Henderson Field Airport)
 
Road maps at: MapQuest Bing Google
 
Aerial photo
WARNING: Photo may not be current or correct
Aerial photo of KACZ (Henderson Field Airport)
Photo by Richard Verdier
Photo taken 23-Oct-2014
looking west.

Do you have a better or more recent aerial photo of Henderson Field Airport that you would like to share? If so, please send us your photo.

 
Sectional chart

 
Airport distance calculator
Flying to Henderson Field Airport? Find the distance to fly.

From to KACZ

Sunrise and sunset
Times for 26-Jul-2017
 Local
(UTC-4)
 Zulu
(UTC)
Morning civil twilight05:5009:50
Sunrise06:1910:19
Sunset20:1800:18
Evening civil twilight20:4700:47

Current date and time
Zulu (UTC)  26-Jul-2017 12:10:52
Local (UTC-4)  26-Jul-2017 08:10:52
 
METAR
KDPL 
17nm N 
261150Z AUTO 04003KT 10SM OVC040 23/20 A3015 RMK AO2
KOAJ 
20nm E 
261156Z AUTO 03003KT 10SM BKN043 23/21 A3015 RMK AO2 SLP213 7//// T02280211 10239 20222 53010
KCTZ 
24nm NW 
261145Z AUTO 04004KT 10SM BKN035 24/20 A3015 RMK AO2 T02350201
KNCA 
27nm E 
261156Z 05007KT 10SM OVC045 24/22 A3013 RMK AO2 SLP206 70002 T02440222 10256 20239 53010
KILM 
28nm S 
261153Z 02005KT 10SM BKN035 OVC041 25/22 A3012 RMK AO2 SLP200 T02500217 10261 20250 53013
TAF
KOAJ 
20nm E 
261131Z 2612/2712 05008KT P6SM SCT045 FM270700 00000KT 5SM BR SCT008 AMD LTD TO CLD VIS AND WIND
NOTAMs
Click for the latest NOTAMs
NOTAMs are issued by the DoD/FAA and will open in a separate window not controlled by AirNav.

 

 
 

FBO, Fuel Providers, and Aircraft Ground Support

  
 Business Name 
 
 Contact 
 
 Services / Description 
 
Fuel Prices
 
Comments
  
Henderson Municipal Airport 910-285-6642
910-285-4136
[web site]
[email]
Airport management, Aviation fuel, Aircraft parking (ramp or tiedown), Passenger terminal and lounge, Aircraft maintenance, Rental cars, Courtesy transportation, ...

More info about Henderson Municipal Airport
Phillips 66
100LL Jet A
SS $3.75 $2.99 
 Updated 13-Jul-2017
 
   write
SS=Self service
Update Fuel Prices
 

Would you like to see your business listed on this page?

 If your business provides an interesting product or service to pilots, flight crews, aircraft, or users of the Henderson Field Airport, you should consider listing it here.  To start the listing process, click on the button below
 
Add a business
 

Other Pages about Henderson Field Airport

Update a link
 
Copyright © AirNav, LLC. All rights reserved. Privacy Policy  Contact